createdAt,value
2022-08-03T00:02:21.870Z,59.58
2022-08-03T00:04:50.122Z,59.61
2022-08-03T00:07:18.362Z,59.65
2022-08-03T00:09:46.962Z,59.75
2022-08-03T00:12:15.373Z,59.72
2022-08-03T00:14:43.913Z,59.85
2022-08-03T00:17:12.933Z,59.85
2022-08-03T00:19:41.397Z,59.96
2022-08-03T00:22:09.748Z,59.91
2022-08-03T00:24:38.816Z,59.93
2022-08-03T00:27:07.139Z,59.87
2022-08-03T00:30:00.198Z,59.99
2022-08-03T00:32:24.761Z,60.01
2022-08-03T00:34:57.528Z,60.05
2022-08-03T00:37:40.723Z,59.98
2022-08-03T00:40:12.559Z,60.17
2022-08-03T00:42:51.537Z,60.02
2022-08-03T00:45:26.324Z,60.07
2022-08-03T00:47:55.440Z,60.25
2022-08-03T00:50:25.725Z,60.28
2022-08-03T00:52:56.868Z,60.29
2022-08-03T00:55:26.061Z,60.32
2022-08-03T00:57:55.468Z,60.26
2022-08-03T01:00:26.880Z,60.21
2022-08-03T01:02:55.423Z,60.31
2022-08-03T01:05:24.290Z,60.39
2022-08-03T01:08:21.399Z,60.29
2022-08-03T01:12:00.310Z,60.37
2022-08-03T01:14:54.629Z,60.21
2022-08-03T01:17:30.724Z,60.29
2022-08-03T01:20:08.115Z,60.40
2022-08-03T01:22:57.820Z,60.42
2022-08-03T01:26:00.266Z,60.24
2022-08-03T01:28:47.313Z,60.32
2022-08-03T01:31:21.848Z,60.35
2022-08-03T01:33:59.795Z,60.38
2022-08-03T01:36:36.542Z,60.44
2022-08-03T01:39:09.674Z,60.43
2022-08-03T01:41:48.427Z,60.27
2022-08-03T01:44:27.698Z,60.33
2022-08-03T01:47:03.642Z,60.49
2022-08-03T01:49:37.503Z,60.46
2022-08-03T01:52:07.775Z,60.55
2022-08-03T01:54:40.912Z,60.60
2022-08-03T01:57:11.085Z,60.51
2022-08-03T01:59:42.160Z,60.35
2022-08-03T02:02:16.076Z,60.56
2022-08-03T02:05:05.971Z,60.40
2022-08-03T02:07:42.351Z,60.47
2022-08-03T02:10:13.402Z,60.37
2022-08-03T02:12:46.035Z,60.55
2022-08-03T02:15:18.324Z,60.41
2022-08-03T02:17:47.505Z,60.45
2022-08-03T02:20:18.342Z,60.47
2022-08-03T02:22:47.239Z,60.46
2022-08-03T02:25:16.539Z,60.52
2022-08-03T02:28:12.465Z,60.47
2022-08-03T02:30:44.279Z,60.45
2022-08-03T02:33:25.163Z,60.62
2022-08-03T02:35:55.472Z,60.51
2022-08-03T02:38:28.390Z,60.52
2022-08-03T02:40:59.396Z,60.49
2022-08-03T02:44:05.376Z,60.71
2022-08-03T02:46:23.337Z,60.63
2022-08-03T02:48:52.732Z,60.56
2022-08-03T02:51:21.627Z,60.74
2022-08-03T02:53:51.372Z,60.77
2022-08-03T02:56:21.793Z,60.79
2022-08-03T02:58:50.558Z,60.83
2022-08-03T03:01:27.639Z,60.88
2022-08-03T03:04:00.108Z,60.94
2022-08-03T03:06:31.106Z,60.97
2022-08-03T03:09:00.550Z,60.90
2022-08-03T03:11:29.848Z,60.84
2022-08-03T03:13:59.934Z,60.88
2022-08-03T03:16:30.501Z,60.97
2022-08-03T03:19:00.211Z,60.98
2022-08-03T03:21:31.487Z,60.95
2022-08-03T03:24:00.452Z,61.07
2022-08-03T03:26:29.086Z,61.06
2022-08-03T03:28:58.231Z,60.98
2022-08-03T03:31:26.755Z,61.13
2022-08-03T03:33:58.242Z,61.08
2022-08-03T03:36:26.767Z,61.16
2022-08-03T03:38:55.270Z,61.16
2022-08-03T03:41:23.914Z,61.27
2022-08-03T03:43:52.629Z,61.19
2022-08-03T03:46:21.102Z,61.31
2022-08-03T03:48:49.541Z,61.32
2022-08-03T03:51:18.874Z,61.34
2022-08-03T03:53:58.634Z,61.49
2022-08-03T03:56:27.928Z,61.42
2022-08-03T03:58:56.694Z,61.37
2022-08-03T04:01:25.944Z,61.28
2022-08-03T04:03:54.293Z,61.48
2022-08-03T04:06:41.680Z,61.35
2022-08-03T04:09:29.807Z,61.34
2022-08-03T04:12:01.901Z,61.35
2022-08-03T04:14:35.398Z,61.32
2022-08-03T04:17:07.233Z,61.37
2022-08-03T04:19:47.720Z,61.43
2022-08-03T04:22:20.069Z,61.29
2022-08-03T04:24:55.856Z,61.46
2022-08-03T04:27:27.634Z,61.42
2022-08-03T04:29:57.892Z,61.34
2022-08-03T04:32:28.861Z,61.27
2022-08-03T04:34:57.907Z,61.20
2022-08-03T04:37:31.908Z,61.21
2022-08-03T04:40:03.588Z,60.95
2022-08-03T04:42:34.151Z,60.97
2022-08-03T04:45:04.247Z,60.96
2022-08-03T04:47:34.015Z,60.83
2022-08-03T04:50:06.285Z,60.65
2022-08-03T04:52:36.839Z,60.52
2022-08-03T04:55:06.287Z,60.40
2022-08-03T04:57:34.566Z,60.18
2022-08-03T05:00:05.196Z,60.10
2022-08-03T05:02:33.892Z,60.04
2022-08-03T05:05:02.408Z,59.84
2022-08-03T05:07:36.175Z,59.45
2022-08-03T05:10:15.787Z,59.49
2022-08-03T05:12:48.263Z,59.44
2022-08-03T05:15:16.765Z,59.24
2022-08-03T05:17:45.066Z,59.06
2022-08-03T05:20:18.102Z,58.69
2022-08-03T05:22:47.491Z,58.66
2022-08-03T05:25:17.381Z,58.61
2022-08-03T05:27:49.443Z,58.33
2022-08-03T05:30:30.590Z,58.27
2022-08-03T05:33:04.190Z,58.28
2022-08-03T05:36:02.727Z,57.92
2022-08-03T05:38:28.874Z,57.88
2022-08-03T05:41:20.251Z,57.66
2022-08-03T05:43:54.007Z,57.52
2022-08-03T05:46:23.160Z,57.45
2022-08-03T05:48:51.528Z,57.18
2022-08-03T05:51:20.009Z,57.20
2022-08-03T05:53:49.102Z,57.21
2022-08-03T05:56:17.456Z,57.14
2022-08-03T05:58:47.738Z,56.92
2022-08-03T06:01:17.634Z,57.12
2022-08-03T06:03:46.794Z,56.95
2022-08-03T06:06:15.786Z,56.69
2022-08-03T06:08:45.592Z,56.88
2022-08-03T06:11:13.976Z,56.67
2022-08-03T06:13:43.186Z,56.55
2022-08-03T06:16:11.754Z,56.49
2022-08-03T06:18:40.651Z,56.34
2022-08-03T06:21:15.274Z,56.59
2022-08-03T06:23:53.467Z,56.31
2022-08-03T06:26:28.446Z,56.45
2022-08-03T06:28:57.197Z,56.19
2022-08-03T06:31:32.872Z,56.22
2022-08-03T06:34:33.639Z,55.81
2022-08-03T06:36:53.133Z,55.47
2022-08-03T06:39:23.724Z,55.68
2022-08-03T06:41:52.985Z,55.15
2022-08-03T06:44:21.391Z,54.71
2022-08-03T06:46:51.428Z,54.32
2022-08-03T06:49:19.863Z,54.23
2022-08-03T06:52:03.112Z,54.00
2022-08-03T06:54:35.869Z,53.84
2022-08-03T06:57:05.272Z,53.27
2022-08-03T07:00:06.160Z,53.09
2022-08-03T07:02:22.844Z,52.88
2022-08-03T07:04:51.202Z,52.58
2022-08-03T07:07:20.784Z,52.47
2022-08-03T07:09:57.336Z,52.09
2022-08-03T07:12:30.567Z,51.57
2022-08-03T07:15:02.685Z,51.47
2022-08-03T07:17:34.008Z,51.10
2022-08-03T07:20:05.538Z,50.69
2022-08-03T07:22:35.138Z,50.10
2022-08-03T07:25:05.141Z,50.06
2022-08-03T07:27:34.286Z,49.67
2022-08-03T07:30:02.732Z,49.33
2022-08-03T07:32:31.937Z,49.35
2022-08-03T07:35:01.390Z,49.12
2022-08-03T07:37:31.106Z,48.95
2022-08-03T07:40:00.876Z,48.48
2022-08-03T07:42:30.022Z,48.57
2022-08-03T07:44:59.381Z,48.06
2022-08-03T07:47:35.076Z,48.09
2022-08-03T07:50:08.715Z,47.82
2022-08-03T07:52:53.363Z,47.55
2022-08-03T07:55:24.242Z,47.56
2022-08-03T07:58:09.536Z,47.63
2022-08-03T08:00:38.885Z,47.69
2022-08-03T08:03:07.663Z,47.83
2022-08-03T08:05:37.476Z,47.36
2022-08-03T08:08:06.161Z,47.67
2022-08-03T08:10:35.360Z,47.73
2022-08-03T08:13:04.966Z,47.73
2022-08-03T08:15:33.399Z,47.70
2022-08-03T08:18:02.624Z,47.41
2022-08-03T08:20:35.801Z,47.64
2022-08-03T08:23:19.996Z,47.74
2022-08-03T08:25:57.271Z,47.68
2022-08-03T08:28:32.883Z,47.48
2022-08-03T08:31:02.965Z,47.53
2022-08-03T08:33:54.309Z,47.56
2022-08-03T08:36:20.820Z,47.57
2022-08-03T08:38:49.271Z,47.60
2022-08-03T08:41:17.882Z,47.53
2022-08-03T08:43:46.181Z,47.45
2022-08-03T08:46:23.463Z,47.53
2022-08-03T08:48:54.463Z,47.47
2022-08-03T08:51:59.133Z,47.51
2022-08-03T08:54:21.700Z,47.26
2022-08-03T08:56:56.354Z,47.12
2022-08-03T08:59:25.587Z,47.29
2022-08-03T09:01:58.385Z,47.13
2022-08-03T09:04:31.861Z,47.04
2022-08-03T09:07:19.195Z,46.76
2022-08-03T09:10:10.762Z,46.79
2022-08-03T09:12:45.721Z,46.54
2022-08-03T09:15:33.526Z,46.55
2022-08-03T09:18:03.913Z,46.23
2022-08-03T09:20:34.776Z,45.84
2022-08-03T09:23:58.989Z,45.67
2022-08-03T09:26:01.891Z,45.52
2022-08-03T09:29:00.569Z,45.19
2022-08-03T09:32:00.037Z,45.16
2022-08-03T09:34:29.095Z,44.95
2022-08-03T09:37:00.856Z,44.74
2022-08-03T09:39:41.934Z,44.64
2022-08-03T09:42:14.678Z,44.49
2022-08-03T09:44:48.538Z,44.52
2022-08-03T09:47:37.189Z,44.24
2022-08-03T09:50:13.806Z,43.96
2022-08-03T09:52:52.191Z,43.92
2022-08-03T09:56:33.434Z,43.78
2022-08-03T09:58:12.905Z,43.38
2022-08-03T10:01:07.838Z,43.20
2022-08-03T10:04:03.124Z,42.80
2022-08-03T10:06:32.257Z,42.31
2022-08-03T10:09:17.087Z,42.23
2022-08-03T10:11:47.148Z,42.13
2022-08-03T10:14:19.595Z,41.79
2022-08-03T10:16:49.654Z,41.71
2022-08-03T10:19:18.013Z,41.64
2022-08-03T10:22:01.744Z,41.39
2022-08-03T10:24:34.732Z,41.24
2022-08-03T10:27:06.284Z,40.84
2022-08-03T10:29:39.996Z,40.35
2022-08-03T10:32:22.012Z,40.15
2022-08-03T10:35:00.282Z,39.89
2022-08-03T10:37:33.447Z,39.54
2022-08-03T10:40:02.995Z,39.29
2022-08-03T10:42:32.057Z,39.21
2022-08-03T10:45:10.062Z,38.94
2022-08-03T10:47:40.417Z,38.78
2022-08-03T10:50:09.762Z,38.65
2022-08-03T10:53:07.450Z,38.01
2022-08-03T10:56:03.720Z,38.01
2022-08-03T10:58:57.895Z,37.92
2022-08-03T11:02:02.937Z,37.81
2022-08-03T11:04:31.387Z,37.60
2022-08-03T11:07:24.373Z,37.51
2022-08-03T11:09:55.033Z,37.31
2022-08-03T11:12:29.905Z,37.14
2022-08-03T11:15:06.689Z,36.93
2022-08-03T11:17:45.896Z,37.06
2022-08-03T11:20:15.690Z,36.67
2022-08-03T11:22:51.606Z,36.53
2022-08-03T11:25:53.645Z,36.22
2022-08-03T11:28:28.863Z,36.11
2022-08-03T11:30:57.224Z,36.25
2022-08-03T11:33:32.372Z,35.93
2022-08-03T11:36:03.436Z,36.05
2022-08-03T11:38:31.882Z,35.74
2022-08-03T11:41:02.834Z,35.86
2022-08-03T11:43:31.781Z,35.71
2022-08-03T11:46:28.159Z,35.19
2022-08-03T11:49:09.748Z,35.43
2022-08-03T11:51:40.468Z,35.11
2022-08-03T11:54:09.233Z,35.35
2022-08-03T11:56:46.627Z,35.32
2022-08-03T11:59:20.383Z,35.46
2022-08-03T12:01:50.775Z,35.09
2022-08-03T12:04:19.537Z,35.38
2022-08-03T12:07:03.782Z,35.21
2022-08-03T12:09:34.932Z,35.34
2022-08-03T12:12:03.535Z,35.30
2022-08-03T12:14:49.328Z,35.50
2022-08-03T12:17:21.207Z,35.52
2022-08-03T12:19:49.773Z,35.23
2022-08-03T12:22:32.028Z,35.20
2022-08-03T12:25:00.637Z,35.19
2022-08-03T12:27:31.301Z,34.88
2022-08-03T12:30:01.931Z,35.03
2022-08-03T12:32:31.511Z,34.83
2022-08-03T12:35:01.868Z,34.99
2022-08-03T12:37:30.697Z,34.87
2022-08-03T12:40:09.375Z,34.44
2022-08-03T12:42:40.106Z,34.51
2022-08-03T12:45:22.583Z,34.13
2022-08-03T12:47:58.912Z,34.33
2022-08-03T12:50:31.873Z,34.13
2022-08-03T12:53:05.636Z,34.17
2022-08-03T12:55:57.386Z,33.61
2022-08-03T12:58:34.334Z,33.41
2022-08-03T13:01:10.061Z,33.43
2022-08-03T13:03:50.520Z,33.29
2022-08-03T13:06:25.713Z,32.93
2022-08-03T13:09:05.954Z,32.90
2022-08-03T13:11:55.580Z,32.62
2022-08-03T13:14:23.633Z,32.95
2022-08-03T13:16:52.284Z,32.86
2022-08-03T13:19:20.670Z,32.68
2022-08-03T13:22:02.139Z,32.33
2022-08-03T13:24:33.876Z,32.38
2022-08-03T13:28:01.054Z,32.26
2022-08-03T13:29:53.191Z,31.98
2022-08-03T13:32:22.696Z,31.98
2022-08-03T13:34:51.178Z,31.75
2022-08-03T13:37:19.758Z,31.78
2022-08-03T13:39:59.573Z,31.39
2022-08-03T13:42:30.035Z,31.41
2022-08-03T13:44:59.906Z,31.38
2022-08-03T13:47:28.349Z,31.47
2022-08-03T13:50:01.510Z,31.22
2022-08-03T13:52:35.658Z,31.31
2022-08-03T13:55:06.669Z,31.12
2022-08-03T13:58:05.336Z,31.13
2022-08-03T14:00:29.209Z,30.91
2022-08-03T14:03:09.538Z,30.88
2022-08-03T14:05:43.476Z,30.72
2022-08-03T14:08:12.700Z,30.72
2022-08-03T14:10:44.096Z,30.63
2022-08-03T14:13:16.812Z,30.64
2022-08-03T14:15:50.120Z,30.22
2022-08-03T14:18:28.673Z,29.93
2022-08-03T14:21:07.410Z,29.66
2022-08-03T14:23:38.200Z,29.55
2022-08-03T14:26:08.193Z,29.82
2022-08-03T14:28:36.698Z,29.53
2022-08-03T14:31:08.552Z,29.62
2022-08-03T14:33:54.183Z,29.65
2022-08-03T14:36:23.030Z,29.55
2022-08-03T14:38:51.554Z,29.31
2022-08-03T14:41:20.467Z,29.22
2022-08-03T14:44:01.746Z,29.30
2022-08-03T14:46:32.116Z,29.01
2022-08-03T14:50:28.836Z,28.97
2022-08-03T14:51:51.364Z,28.96
2022-08-03T14:54:23.363Z,28.72
2022-08-03T14:56:52.179Z,28.67
2022-08-03T14:59:20.755Z,28.83
2022-08-03T15:02:05.135Z,28.48
2022-08-03T15:04:36.535Z,28.40
2022-08-03T15:07:05.341Z,28.77
2022-08-03T15:09:34.194Z,28.61
2022-08-03T15:12:02.590Z,28.53
2022-08-03T15:14:33.144Z,28.68
2022-08-03T15:17:02.033Z,28.42
2022-08-03T15:20:03.461Z,28.21
2022-08-03T15:22:20.703Z,28.31
2022-08-03T15:24:54.309Z,28.10
2022-08-03T15:27:23.374Z,27.82
2022-08-03T15:30:09.460Z,28.19
2022-08-03T15:32:39.212Z,28.10
2022-08-03T15:35:07.914Z,28.22
2022-08-03T15:37:36.448Z,28.03
2022-08-03T15:40:05.954Z,28.13
2022-08-03T15:42:34.591Z,28.18
2022-08-03T15:45:02.813Z,28.04
2022-08-03T15:47:31.702Z,28.00
2022-08-03T15:50:00.111Z,27.83
2022-08-03T15:52:28.416Z,27.63
2022-08-03T15:54:57.352Z,27.81
2022-08-03T15:57:25.884Z,27.74
2022-08-03T15:59:54.236Z,27.61
2022-08-03T16:02:22.897Z,27.76
2022-08-03T16:04:52.402Z,27.65
2022-08-03T16:07:40.805Z,27.68
2022-08-03T16:10:30.720Z,27.74
2022-08-03T16:13:00.498Z,27.98
2022-08-03T16:15:29.161Z,28.20
2022-08-03T16:17:57.437Z,28.10
2022-08-03T16:20:33.922Z,28.44
2022-08-03T16:23:10.503Z,28.44
2022-08-03T16:25:49.394Z,28.62
2022-08-03T16:28:18.460Z,28.58
2022-08-03T16:30:47.580Z,28.50
2022-08-03T16:33:17.814Z,28.66
2022-08-03T16:35:49.736Z,29.11
2022-08-03T16:38:19.346Z,28.89
2022-08-03T16:40:52.375Z,29.14
2022-08-03T16:43:22.640Z,28.99
2022-08-03T16:45:51.973Z,29.24
2022-08-03T16:48:20.714Z,29.75
2022-08-03T16:50:49.248Z,29.83
2022-08-03T16:53:33.014Z,29.80
2022-08-03T16:56:05.553Z,30.02
2022-08-03T16:58:41.737Z,30.18
2022-08-03T17:01:24.037Z,30.38
2022-08-03T17:04:03.162Z,30.21
2022-08-03T17:06:44.961Z,30.29
2022-08-03T17:09:21.261Z,30.41
2022-08-03T17:11:51.177Z,30.64
2022-08-03T17:14:29.339Z,30.61
2022-08-03T17:17:01.799Z,30.40
2022-08-03T17:19:36.705Z,30.74
2022-08-03T17:22:15.804Z,30.56
2022-08-03T17:24:51.429Z,30.90
2022-08-03T17:28:49.398Z,30.96
2022-08-03T17:30:16.020Z,31.37
2022-08-03T17:32:57.100Z,31.54
2022-08-03T17:35:36.881Z,31.63
2022-08-03T17:38:15.749Z,31.92
2022-08-03T17:40:48.292Z,32.18
2022-08-03T17:44:14.280Z,32.51
2022-08-03T17:46:10.895Z,32.75
2022-08-03T17:48:41.467Z,33.08
2022-08-03T17:51:50.040Z,33.35
2022-08-03T17:54:30.783Z,33.78
2022-08-03T17:58:02.154Z,34.13
2022-08-03T18:00:43.559Z,34.59
2022-08-03T18:03:18.678Z,34.83
2022-08-03T18:06:11.533Z,35.26
2022-08-03T18:08:50.577Z,35.64
2022-08-03T18:11:23.488Z,36.03
2022-08-03T18:14:17.011Z,36.26
2022-08-03T18:17:06.588Z,36.62
2022-08-03T18:22:30.634Z,37.38
2022-08-03T18:25:00.423Z,37.62
2022-08-03T18:27:45.977Z,38.11
2022-08-03T18:30:16.226Z,38.29
2022-08-03T18:33:01.097Z,38.67
2022-08-03T18:35:53.120Z,39.00
2022-08-03T18:38:24.283Z,39.30
2022-08-03T18:40:52.954Z,39.62
2022-08-03T18:43:22.575Z,40.23
2022-08-03T18:46:29.964Z,40.65
2022-08-03T18:49:14.406Z,40.78
2022-08-03T18:51:48.689Z,41.22
2022-08-03T18:54:45.566Z,41.52
2022-08-03T18:57:30.214Z,41.89
2022-08-03T19:00:14.091Z,42.40
2022-08-03T19:02:58.904Z,42.55
2022-08-03T19:05:57.748Z,42.82
2022-08-03T19:08:31.252Z,43.19
2022-08-03T19:11:06.054Z,43.45
2022-08-03T19:13:50.312Z,43.72
2022-08-03T19:16:30.890Z,43.94
2022-08-03T19:19:04.473Z,44.01
2022-08-03T19:21:36.984Z,44.43
2022-08-03T19:24:10.160Z,44.45
2022-08-03T19:26:39.868Z,45.05
2022-08-03T19:29:14.728Z,45.08
2022-08-03T19:31:58.762Z,45.16
2022-08-03T19:34:32.953Z,45.44
2022-08-03T19:37:02.562Z,45.88
2022-08-03T19:39:31.702Z,45.80
2022-08-03T19:42:18.451Z,46.08
2022-08-03T19:44:55.538Z,46.24
2022-08-03T19:47:32.107Z,46.47
2022-08-03T19:50:13.840Z,46.72
2022-08-03T19:52:47.564Z,47.04
2022-08-03T19:55:17.665Z,47.03
2022-08-03T19:57:53.177Z,47.05
2022-08-03T20:00:30.577Z,47.41
2022-08-03T20:03:21.729Z,47.67
2022-08-03T20:05:52.267Z,47.86
2022-08-03T20:08:23.445Z,48.01
2022-08-03T20:10:52.269Z,48.14
2022-08-03T20:13:20.937Z,48.22
2022-08-03T20:15:53.323Z,48.49
2022-08-03T20:18:22.266Z,48.64
2022-08-03T20:20:54.496Z,48.72
2022-08-03T20:23:27.129Z,48.80
2022-08-03T20:26:09.381Z,49.14
2022-08-03T20:28:50.048Z,49.31
2022-08-03T20:31:25.185Z,49.29
2022-08-03T20:34:09.386Z,49.63
2022-08-03T20:36:39.000Z,49.77
2022-08-03T20:39:07.903Z,50.09
2022-08-03T20:41:37.695Z,50.37
2022-08-03T20:44:06.483Z,50.28
2022-08-03T20:46:46.718Z,50.22
2022-08-03T20:49:24.144Z,50.56
2022-08-03T20:51:53.631Z,50.69
2022-08-03T20:54:29.838Z,50.57
2022-08-03T20:57:03.639Z,50.70
2022-08-03T20:59:50.308Z,51.02
2022-08-03T21:02:30.054Z,51.00
2022-08-03T21:05:03.443Z,51.39
2022-08-03T21:08:05.246Z,51.31
2022-08-03T21:10:40.732Z,51.51
2022-08-03T21:13:03.991Z,36.99
2022-08-03T21:16:02.900Z,51.60
2022-08-03T21:18:52.751Z,51.55
2022-08-03T21:21:23.807Z,51.67
2022-08-03T21:23:54.363Z,51.70
2022-08-03T21:26:26.085Z,51.80
2022-08-03T21:28:56.954Z,51.68
2022-08-03T21:31:26.751Z,51.63
2022-08-03T21:34:01.733Z,51.33
2022-08-03T21:36:33.296Z,51.08
2022-08-03T21:39:04.665Z,51.22
2022-08-03T21:41:33.197Z,50.80
2022-08-03T21:44:02.928Z,50.82
2022-08-03T21:46:37.007Z,50.82
2022-08-03T21:50:05.661Z,50.47
2022-08-03T21:52:05.664Z,50.40
2022-08-03T21:54:41.059Z,50.58
2022-08-03T21:57:18.371Z,50.15
2022-08-03T21:59:57.202Z,49.96
2022-08-03T22:02:32.163Z,50.04
2022-08-03T22:05:05.142Z,49.79
2022-08-03T22:07:37.021Z,49.63
2022-08-03T22:10:06.900Z,49.52
2022-08-03T22:12:35.991Z,49.36
2022-08-03T22:15:08.234Z,49.13
2022-08-03T22:17:53.611Z,49.44
2022-08-03T22:20:23.174Z,48.98
2022-08-03T22:22:57.143Z,48.91
2022-08-03T22:25:31.465Z,48.74
2022-08-03T22:28:07.635Z,48.38
2022-08-03T22:30:36.755Z,48.63
2022-08-03T22:33:11.665Z,48.45
2022-08-03T22:35:48.013Z,48.38
2022-08-03T22:38:18.546Z,48.33
2022-08-03T22:40:50.124Z,48.18
2022-08-03T22:43:25.315Z,48.14
2022-08-03T22:46:10.138Z,47.93
2022-08-03T22:48:41.767Z,47.77
2022-08-03T22:51:11.254Z,47.97
2022-08-03T22:53:40.947Z,47.66
2022-08-03T22:56:09.851Z,47.64
2022-08-03T22:58:38.171Z,47.65
2022-08-03T23:01:09.784Z,47.66
2022-08-03T23:03:59.632Z,47.50
2022-08-03T23:06:35.837Z,47.45
2022-08-03T23:09:12.685Z,47.50
2022-08-03T23:11:46.092Z,47.65
2022-08-03T23:14:18.608Z,47.52
2022-08-03T23:16:48.799Z,47.26
2022-08-03T23:19:25.934Z,47.12
2022-08-03T23:22:02.607Z,47.03
2022-08-03T23:24:36.434Z,46.93
2022-08-03T23:27:06.316Z,47.29
2022-08-03T23:29:39.554Z,47.10
2022-08-03T23:32:08.439Z,47.08
2022-08-03T23:34:58.727Z,46.96
2022-08-03T23:37:27.427Z,46.78
2022-08-03T23:39:57.193Z,46.83
2022-08-03T23:42:26.470Z,47.02
2022-08-03T23:44:56.842Z,46.58
2022-08-03T23:47:46.413Z,46.69
2022-08-03T23:50:17.807Z,46.90
2022-08-03T23:53:06.194Z,46.72
2022-08-03T23:55:46.106Z,46.79
2022-08-03T23:58:47.432Z,46.64
